createdAt,value
2023-03-29T00:02:11.325Z,54.30
2023-03-29T00:07:14.382Z,54.29
2023-03-29T00:12:16.719Z,54.27
2023-03-29T00:17:19.011Z,54.28
2023-03-29T00:22:21.614Z,54.17
2023-03-29T00:27:23.787Z,54.27
2023-03-29T00:32:26.624Z,54.53
2023-03-29T00:37:30.163Z,54.48
2023-03-29T00:42:32.372Z,54.38
2023-03-29T00:47:45.734Z,54.40
2023-03-29T00:52:57.431Z,54.35
2023-03-29T00:58:01.173Z,54.34
2023-03-29T01:03:09.255Z,54.38
2023-03-29T01:08:25.887Z,54.52
2023-03-29T01:13:39.540Z,54.20
2023-03-29T01:18:42.201Z,54.11
2023-03-29T01:24:07.280Z,54.16
2023-03-29T01:29:27.877Z,54.20
2023-03-29T01:34:44.024Z,54.29
2023-03-29T01:39:46.749Z,54.36
2023-03-29T01:45:18.312Z,54.29
2023-03-29T01:50:23.184Z,54.34
2023-03-29T01:55:32.220Z,54.43
2023-03-29T02:00:36.477Z,54.59
2023-03-29T02:05:40.262Z,54.53
2023-03-29T02:10:42.755Z,54.62
2023-03-29T02:15:46.900Z,54.49
2023-03-29T02:20:51.100Z,54.45
2023-03-29T02:25:54.952Z,54.58
2023-03-29T02:31:01.665Z,54.48
2023-03-29T02:36:13.659Z,54.39
2023-03-29T02:41:18.253Z,54.08
2023-03-29T02:46:21.649Z,54.13
2023-03-29T02:51:30.239Z,54.23
2023-03-29T02:56:43.553Z,54.36
2023-03-29T03:01:46.233Z,54.45
2023-03-29T03:06:49.274Z,54.44
2023-03-29T03:11:51.479Z,54.29
2023-03-29T03:16:53.719Z,54.50
2023-03-29T03:21:56.300Z,54.57
2023-03-29T03:26:58.848Z,54.54
2023-03-29T03:32:01.140Z,54.39
2023-03-29T03:37:12.556Z,54.44
2023-03-29T03:42:15.020Z,54.64
2023-03-29T03:47:20.582Z,54.71
2023-03-29T03:52:22.838Z,54.71
2023-03-29T03:57:25.706Z,54.54
2023-03-29T04:02:28.751Z,54.46
2023-03-29T04:07:30.984Z,54.44
2023-03-29T04:12:39.681Z,54.39
2023-03-29T04:17:43.035Z,54.40
2023-03-29T04:23:14.815Z,54.51
2023-03-29T04:28:19.560Z,54.28
2023-03-29T04:33:40.879Z,53.96
2023-03-29T04:38:47.390Z,54.21
2023-03-29T04:43:52.403Z,54.22
2023-03-29T04:49:01.861Z,54.34
2023-03-29T04:54:10.276Z,54.28
2023-03-29T04:59:35.492Z,54.33
2023-03-29T05:04:43.712Z,54.34
2023-03-29T05:09:49.737Z,54.62
2023-03-29T05:14:52.017Z,54.61
2023-03-29T05:19:55.607Z,54.43
2023-03-29T05:25:01.217Z,54.48
2023-03-29T05:30:04.033Z,54.74
2023-03-29T05:35:18.627Z,54.65
2023-03-29T05:40:21.121Z,54.60
2023-03-29T05:45:45.904Z,54.62
2023-03-29T05:50:50.013Z,54.67
2023-03-29T05:55:53.484Z,54.39
2023-03-29T06:01:00.878Z,54.48
2023-03-29T06:06:27.047Z,54.69
2023-03-29T06:11:29.515Z,54.69
2023-03-29T06:16:50.321Z,54.64
2023-03-29T06:21:54.448Z,54.45
2023-03-29T06:27:00.696Z,54.30
2023-03-29T06:32:05.791Z,54.41
2023-03-29T06:37:29.409Z,54.48
2023-03-29T06:42:41.097Z,54.36
2023-03-29T06:48:05.124Z,54.39
2023-03-29T06:53:07.678Z,54.37
2023-03-29T06:58:11.277Z,54.65
2023-03-29T07:03:20.824Z,54.51
2023-03-29T07:08:31.489Z,54.46
2023-03-29T07:13:37.562Z,54.46
2023-03-29T07:18:44.522Z,54.55
2023-03-29T07:23:52.476Z,54.71
2023-03-29T07:28:55.187Z,54.69
2023-03-29T07:33:57.795Z,54.60
2023-03-29T07:39:02.199Z,54.56
2023-03-29T07:44:09.375Z,54.50
2023-03-29T07:49:11.572Z,54.75
2023-03-29T07:54:13.909Z,54.58
2023-03-29T07:59:39.214Z,54.85
2023-03-29T08:04:48.726Z,54.75
2023-03-29T08:09:51.029Z,54.89
2023-03-29T08:14:55.922Z,54.96
2023-03-29T08:20:11.486Z,54.85
2023-03-29T08:25:16.867Z,54.79
2023-03-29T08:30:23.275Z,54.79
2023-03-29T08:35:26.810Z,54.85
2023-03-29T08:40:49.034Z,55.03
2023-03-29T08:46:47.657Z,55.04
2023-03-29T08:52:04.790Z,54.99
2023-03-29T08:57:41.050Z,54.97
2023-03-29T09:02:49.701Z,55.18
2023-03-29T09:07:53.509Z,55.15
2023-03-29T09:13:02.877Z,55.18
2023-03-29T09:18:22.012Z,55.11
2023-03-29T09:23:47.811Z,55.02
2023-03-29T09:29:33.165Z,54.87
2023-03-29T09:35:08.171Z,55.18
2023-03-29T09:40:17.976Z,55.28
2023-03-29T09:45:31.959Z,55.15
2023-03-29T09:50:41.503Z,55.02
2023-03-29T09:55:50.240Z,54.92
2023-03-29T10:01:15.902Z,55.02
2023-03-29T10:06:20.101Z,55.24
2023-03-29T10:11:33.547Z,55.12
2023-03-29T10:16:47.881Z,55.00
2023-03-29T10:21:53.115Z,55.06
2023-03-29T10:27:00.393Z,54.97
2023-03-29T10:32:02.834Z,54.95
2023-03-29T10:37:06.830Z,55.07
2023-03-29T10:42:15.185Z,55.05
2023-03-29T10:47:21.011Z,55.29
2023-03-29T10:52:23.324Z,55.08
2023-03-29T10:57:44.578Z,55.14
2023-03-29T11:03:17.063Z,55.25
2023-03-29T11:08:52.803Z,55.27
2023-03-29T11:14:11.738Z,55.26
2023-03-29T11:19:34.968Z,55.21
2023-03-29T11:24:57.764Z,55.25
2023-03-29T11:30:13.643Z,55.22
2023-03-29T11:35:29.881Z,55.39
2023-03-29T11:40:43.161Z,55.29
2023-03-29T11:45:52.628Z,55.10
2023-03-29T11:51:01.694Z,55.11
2023-03-29T11:56:12.468Z,55.39
2023-03-29T12:01:19.174Z,55.63
2023-03-29T12:06:28.741Z,55.55
2023-03-29T12:11:51.231Z,55.40
2023-03-29T12:16:57.313Z,55.33
2023-03-29T12:22:00.804Z,55.48
2023-03-29T12:27:16.652Z,55.61
2023-03-29T12:33:02.292Z,55.58
2023-03-29T12:38:24.632Z,55.67
2023-03-29T12:43:53.332Z,55.56
2023-03-29T12:49:36.142Z,55.69
2023-03-29T12:54:38.583Z,55.69
2023-03-29T12:59:47.034Z,55.69
2023-03-29T13:04:57.502Z,55.58
2023-03-29T13:10:31.580Z,55.54
2023-03-29T13:15:37.312Z,55.63
2023-03-29T13:21:21.244Z,55.62
2023-03-29T13:26:52.042Z,55.78
2023-03-29T13:32:14.301Z,55.48
2023-03-29T13:37:31.339Z,55.63
2023-03-29T13:42:33.388Z,55.69
2023-03-29T13:47:48.933Z,55.49
2023-03-29T13:53:42.345Z,55.49
2023-03-29T13:59:13.678Z,55.47
2023-03-29T14:04:25.171Z,55.45
2023-03-29T14:09:33.528Z,55.60
2023-03-29T14:14:38.696Z,55.43
2023-03-29T14:19:49.143Z,55.36
2023-03-29T14:24:54.703Z,55.47
2023-03-29T14:29:57.139Z,55.45
2023-03-29T14:35:00.816Z,55.55
2023-03-29T14:40:05.344Z,55.40
2023-03-29T14:45:09.692Z,55.42
2023-03-29T14:50:22.448Z,55.20
2023-03-29T14:55:25.174Z,55.44
2023-03-29T15:00:30.750Z,55.47
2023-03-29T15:05:47.394Z,55.31
2023-03-29T15:10:49.749Z,55.35
2023-03-29T15:16:02.339Z,55.47
2023-03-29T15:21:07.554Z,55.32
2023-03-29T15:26:15.971Z,55.24
2023-03-29T15:31:20.310Z,55.21
2023-03-29T15:36:22.493Z,55.37
2023-03-29T15:41:24.763Z,55.20
2023-03-29T15:46:27.608Z,55.25
2023-03-29T15:51:29.826Z,55.19
2023-03-29T15:56:37.571Z,55.30
2023-03-29T16:01:40.392Z,55.27
2023-03-29T16:06:44.422Z,55.14
2023-03-29T16:11:47.363Z,55.13
2023-03-29T16:16:50.904Z,55.18
2023-03-29T16:21:53.820Z,55.48
2023-03-29T16:26:57.387Z,55.31
2023-03-29T16:31:59.650Z,55.03
2023-03-29T16:37:01.863Z,54.96
2023-03-29T16:42:04.502Z,55.02
2023-03-29T16:47:07.206Z,54.98
2023-03-29T16:52:09.425Z,54.98
2023-03-29T16:57:11.542Z,55.02
2023-03-29T17:02:13.637Z,55.02
2023-03-29T17:07:16.037Z,55.01
2023-03-29T17:12:19.322Z,55.11
2023-03-29T17:17:21.582Z,54.97
2023-03-29T17:22:24.676Z,54.95
2023-03-29T17:27:26.849Z,54.96
2023-03-29T17:32:28.934Z,54.89
2023-03-29T17:37:31.351Z,54.80
2023-03-29T17:42:33.433Z,54.95
2023-03-29T17:47:35.678Z,54.98
2023-03-29T17:52:39.893Z,54.98
2023-03-29T17:57:42.963Z,54.90
2023-03-29T18:02:45.265Z,55.10
2023-03-29T18:07:47.432Z,55.01
2023-03-29T18:12:49.392Z,54.94
2023-03-29T18:17:51.633Z,54.89
2023-03-29T18:22:53.848Z,55.02
2023-03-29T18:27:56.189Z,54.90
2023-03-29T18:32:58.535Z,54.93
2023-03-29T18:38:00.671Z,54.82
2023-03-29T18:43:02.672Z,54.83
2023-03-29T18:48:05.722Z,54.84
2023-03-29T18:53:08.320Z,54.76
2023-03-29T18:58:15.057Z,54.79
2023-03-29T19:03:17.341Z,54.92
2023-03-29T19:08:19.615Z,55.00
2023-03-29T19:13:21.811Z,55.08
2023-03-29T19:18:24.026Z,54.97
2023-03-29T19:23:28.544Z,54.96
2023-03-29T19:28:32.290Z,54.88
2023-03-29T19:33:34.471Z,54.81
2023-03-29T19:38:36.992Z,54.88
2023-03-29T19:43:39.157Z,54.89
2023-03-29T19:48:41.531Z,55.06
2023-03-29T19:53:43.711Z,54.93
2023-03-29T19:58:47.005Z,55.01
2023-03-29T20:03:50.444Z,54.85
2023-03-29T20:08:53.242Z,55.00
2023-03-29T20:13:55.656Z,54.91
2023-03-29T20:19:02.081Z,54.95
2023-03-29T20:24:05.187Z,54.85
2023-03-29T20:29:07.581Z,54.86
2023-03-29T20:34:10.066Z,54.80
2023-03-29T20:39:12.422Z,54.97
2023-03-29T20:44:17.352Z,54.97
2023-03-29T20:49:26.649Z,54.89
2023-03-29T20:54:29.350Z,54.84
2023-03-29T20:59:31.897Z,54.81
2023-03-29T21:04:34.082Z,54.92
2023-03-29T21:09:36.598Z,55.04
2023-03-29T21:14:39.049Z,54.94
2023-03-29T21:19:41.697Z,54.90
2023-03-29T21:24:44.349Z,54.75
2023-03-29T21:29:46.487Z,54.93
2023-03-29T21:34:48.514Z,54.92
2023-03-29T21:39:50.761Z,54.88
2023-03-29T21:44:52.874Z,54.81
2023-03-29T21:49:54.974Z,54.87
2023-03-29T21:54:57.224Z,55.06
2023-03-29T21:59:59.316Z,54.91
2023-03-29T22:05:01.309Z,54.54
2023-03-29T22:10:06.321Z,54.89
2023-03-29T22:15:13.633Z,54.76
2023-03-29T22:20:15.686Z,54.88
2023-03-29T22:25:19.372Z,55.00
2023-03-29T22:30:22.968Z,54.74
2023-03-29T22:35:25.352Z,54.80
2023-03-29T22:40:27.432Z,54.78
2023-03-29T22:45:29.527Z,55.05
2023-03-29T22:50:31.880Z,54.87
2023-03-29T22:55:34.188Z,54.87
2023-03-29T23:00:36.759Z,54.68
2023-03-29T23:05:38.844Z,54.68
2023-03-29T23:10:40.863Z,54.94
2023-03-29T23:15:48.694Z,54.75
2023-03-29T23:20:52.965Z,54.82
2023-03-29T23:25:56.936Z,54.55
2023-03-29T23:31:10.272Z,54.85
2023-03-29T23:36:15.831Z,54.90
2023-03-29T23:41:18.948Z,54.80
2023-03-29T23:46:21.628Z,54.62
2023-03-29T23:51:28.291Z,54.67
2023-03-29T23:56:30.999Z,54.80
